Time;durP1;ratioP1;P1;durP2;ratioP2;P2;SDS_P1;SDS_P2;PMS_P1;PMS_P2;Temp;Humidity;BMP_temperature;BMP_pressure;BME280_temperature;BME280_humidity;BME280_pressure;Samples;Min_cycle;Max_cycle;Signal;HPM_P1;HPM_P2
2021/01/24 00:01:33;;;;;;;2.65;2.45;;;17.50;52.70;;;;;;5084830;28;20234;-54
2021/01/24 00:03:59;;;;;;;2.72;2.45;;;17.50;52.60;;;;;;5085091;28;20173;-54
2021/01/24 00:06:24;;;;;;;2.88;2.25;;;17.50;52.70;;;;;;5085015;28;20924;-55
2021/01/24 00:08:50;;;;;;;3.33;2.40;;;17.50;52.70;;;;;;5085036;28;20242;-57
2021/01/24 00:11:16;;;;;;;2.83;2.50;;;17.40;52.70;;;;;;5085034;28;20201;-53
2021/01/24 00:13:41;;;;;;;2.47;2.28;;;17.40;52.60;;;;;;5084879;28;20185;-53
2021/01/24 00:16:07;;;;;;;2.60;2.40;;;17.40;52.70;;;;;;5084768;28;20188;-58
2021/01/24 00:18:32;;;;;;;3.10;2.67;;;17.40;52.60;;;;;;5085047;28;20185;-55
2021/01/24 00:20:58;;;;;;;3.20;2.35;;;17.40;52.60;;;;;;5084705;28;20177;-57
2021/01/24 00:23:23;;;;;;;3.17;2.88;;;17.40;52.60;;;;;;5084714;28;20170;-57
2021/01/24 00:25:49;;;;;;;2.85;2.65;;;17.40;52.60;;;;;;5084794;28;20671;-56
2021/01/24 00:28:20;;;;;;;3.17;2.88;;;17.30;52.60;;;;;;5084846;28;20529;-57
2021/01/24 00:30:45;;;;;;;2.95;2.75;;;17.30;52.60;;;;;;5084390;28;20308;-57
2021/01/24 00:33:11;;;;;;;2.78;2.50;;;17.30;52.60;;;;;;5084478;28;20351;-55
2021/01/24 00:35:37;;;;;;;3.55;3.25;;;17.30;52.60;;;;;;5084727;28;20178;-56
2021/01/24 00:38:03;;;;;;;2.78;2.50;;;17.30;52.60;;;;;;5084681;28;20232;-57
2021/01/24 00:40:29;;;;;;;2.80;2.60;;;17.20;52.50;;;;;;5084653;28;20178;-56
2021/01/24 00:42:54;;;;;;;2.67;2.47;;;17.20;52.60;;;;;;5084435;28;20178;-58
2021/01/24 00:45:20;;;;;;;3.30;3.00;;;17.30;52.70;;;;;;5084405;28;20174;-56
2021/01/24 00:47:45;;;;;;;2.78;2.33;;;17.30;52.70;;;;;;5084590;28;20178;-59
2021/01/24 00:50:11;;;;;;;3.70;2.47;;;17.20;52.60;;;;;;5084597;28;20544;-52
2021/01/24 00:52:37;;;;;;;2.40;2.20;;;17.20;52.70;;;;;;5084496;28;20288;-56
2021/01/24 00:55:03;;;;;;;2.75;2.55;;;17.20;52.70;;;;;;5084282;28;20239;-52
2021/01/24 00:57:28;;;;;;;2.42;2.22;;;17.20;52.60;;;;;;5084215;28;20189;-55
2021/01/24 00:59:54;;;;;;;3.25;2.80;;;17.20;52.70;;;;;;5084358;28;20178;-49
2021/01/24 01:02:19;;;;;;;2.78;2.58;;;17.10;52.60;;;;;;5084042;28;20178;-58
2021/01/24 01:04:45;;;;;;;2.80;2.60;;;17.10;52.60;;;;;;5084207;28;20169;-56
2021/01/24 01:07:10;;;;;;;3.25;2.95;;;17.10;52.60;;;;;;5084301;28;20515;-57
2021/01/24 01:09:36;;;;;;;4.22;2.85;;;17.10;52.60;;;;;;5083215;28;20227;-57
2021/01/24 01:12:03;;;;;;;2.90;2.70;;;17.10;52.70;;;;;;5083955;28;20206;-57
2021/01/24 01:14:28;;;;;;;2.47;2.28;;;17.20;52.70;;;;;;5084170;28;20678;-59
2021/01/24 01:16:54;;;;;;;2.50;2.30;;;17.10;52.70;;;;;;5084666;28;20209;-58
2021/01/24 01:19:19;;;;;;;2.90;2.63;;;17.10;52.70;;;;;;5084386;28;20620;-57
2021/01/24 01:21:45;;;;;;;3.58;2.60;;;17.10;52.70;;;;;;5084297;28;20170;-57
2021/01/24 01:24:11;;;;;;;2.67;2.47;;;17.10;52.80;;;;;;5083730;28;20197;-57
2021/01/24 01:26:36;;;;;;;3.65;2.70;;;17.00;52.60;;;;;;5084183;28;20170;-56
2021/01/24 01:29:02;;;;;;;2.88;2.67;;;17.00;52.60;;;;;;5084014;28;20627;-58
2021/01/24 01:31:27;;;;;;;4.82;3.15;;;17.00;52.60;;;;;;5084270;28;20309;-52
2021/01/24 01:33:53;;;;;;;3.55;2.53;;;17.00;52.60;;;;;;5083954;28;20177;-52
2021/01/24 01:36:19;;;;;;;3.08;2.78;;;17.00;52.60;;;;;;5083962;28;20182;-55
2021/01/24 01:38:44;;;;;;;2.55;2.28;;;17.00;52.70;;;;;;5084296;28;20170;-58
2021/01/24 01:41:10;;;;;;;2.53;2.33;;;17.00;52.70;;;;;;5084335;28;20196;-55
2021/01/24 01:43:35;;;;;;;2.50;2.30;;;17.00;52.70;;;;;;5084164;28;20178;-51
2021/01/24 01:46:01;;;;;;;2.75;2.47;;;16.90;52.70;;;;;;5083851;28;20239;-53
2021/01/24 01:48:27;;;;;;;2.65;2.45;;;16.90;52.70;;;;;;5066045;28;20974;-55
2021/01/24 01:50:52;;;;;;;2.55;2.30;;;16.90;52.70;;;;;;5083942;28;20223;-53
2021/01/24 01:53:18;;;;;;;2.70;2.50;;;16.90;52.70;;;;;;5065446;28;20202;-55
2021/01/24 01:55:44;;;;;;;2.75;2.55;;;16.90;52.70;;;;;;5083763;28;20177;-55
2021/01/24 01:58:09;;;;;;;2.60;2.40;;;16.90;52.70;;;;;;5083415;28;20942;-51
2021/01/24 02:00:35;;;;;;;3.22;2.60;;;16.90;52.70;;;;;;5084000;28;20174;-56
2021/01/24 02:03:34;;;;;;;2.75;2.55;;;16.90;52.70;;;;;;5083865;28;20300;-55
2021/01/24 02:06:10;;;;;;;2.58;2.35;;;16.90;52.70;;;;;;5083766;28;20236;-58
2021/01/24 02:08:52;;;;;;;2.60;2.40;;;16.90;52.70;;;;;;5065900;28;20165;-54
2021/01/24 02:11:29;;;;;;;2.60;2.40;;;16.90;52.70;;;;;;5065457;28;20624;-55
2021/01/24 02:14:20;;;;;;;2.92;2.38;;;16.90;52.70;;;;;;5083729;28;20182;-59
2021/01/24 02:16:46;;;;;;;2.58;2.28;;;16.80;52.80;;;;;;5083513;28;20205;-58
2021/01/24 02:19:20;;;;;;;3.33;2.70;;;16.80;52.70;;;;;;5066078;28;20174;-57
2021/01/24 02:21:46;;;;;;;2.88;2.63;;;16.80;52.70;;;;;;5068720;28;20161;-58
2021/01/24 02:24:13;;;;;;;2.60;2.40;;;16.80;52.80;;;;;;5069029;28;20211;-55
2021/01/24 02:27:02;;;;;;;2.30;2.10;;;16.80;52.70;;;;;;5052559;28;20243;-55
2021/01/24 02:29:51;;;;;;;3.03;2.70;;;16.80;52.70;;;;;;5065645;28;21006;-52
2021/01/24 02:32:18;;;;;;;2.35;2.15;;;16.80;52.60;;;;;;5065676;28;20942;-53
2021/01/24 02:34:43;;;;;;;2.90;2.50;;;16.70;52.60;;;;;;5065081;28;20182;-54
2021/01/24 02:37:09;;;;;;;3.08;2.40;;;16.70;52.60;;;;;;5049020;28;20189;-55
2021/01/24 02:39:34;;;;;;;2.40;2.20;;;16.70;52.70;;;;;;5065072;28;20253;-57
2021/01/24 02:42:01;;;;;;;2.42;2.22;;;16.70;52.70;;;;;;5048301;28;20944;-59
2021/01/24 02:44:27;;;;;;;2.50;2.30;;;16.70;52.70;;;;;;5048738;28;20190;-51
2021/01/24 02:46:55;;;;;;;2.50;2.30;;;16.70;52.60;;;;;;5048367;28;20666;-57
2021/01/24 02:49:20;;;;;;;2.90;2.53;;;16.70;52.60;;;;;;5065432;28;20238;-53
2021/01/24 02:51:46;;;;;;;2.10;2.00;;;16.70;53.30;;;;;;5048500;28;21010;-54
2021/01/24 02:54:11;;;;;;;2.35;2.15;;;16.70;52.60;;;;;;5048108;28;20179;-52
2021/01/24 02:56:37;;;;;;;2.30;2.10;;;16.60;52.60;;;;;;5066065;28;20251;-54
2021/01/24 02:59:03;;;;;;;2.60;2.40;;;16.60;52.60;;;;;;5065033;28;20235;-53
2021/01/24 03:01:29;;;;;;;2.20;2.10;;;16.60;52.60;;;;;;5066517;28;20550;-52
2021/01/24 03:03:54;;;;;;;2.47;2.28;;;16.60;52.60;;;;;;5066379;28;20170;-56
2021/01/24 03:06:20;;;;;;;2.30;2.10;;;16.60;52.70;;;;;;5065679;28;20181;-51
2021/01/24 03:08:45;;;;;;;2.47;2.28;;;16.60;52.70;;;;;;5064861;28;20271;-54
2021/01/24 03:11:12;;;;;;;2.90;2.65;;;16.60;52.60;;;;;;5064696;28;20590;-52
2021/01/24 03:14:10;;;;;;;2.35;2.15;;;16.60;52.60;;;;;;5065040;28;20175;-56
2021/01/24 03:16:37;;;;;;;2.47;2.28;;;16.60;52.60;;;;;;5063549;28;20196;-55
2021/01/24 03:19:03;;;;;;;2.70;2.50;;;16.50;52.60;;;;;;5048426;28;20174;-53
2021/01/24 03:21:28;;;;;;;2.38;2.17;;;16.60;52.60;;;;;;5065820;28;20708;-57
2021/01/24 03:23:54;;;;;;;2.20;2.10;;;16.50;52.60;;;;;;5048209;28;20174;-54
2021/01/24 03:26:19;;;;;;;2.00;1.80;;;16.50;52.60;;;;;;5064524;28;20596;-51
2021/01/24 03:28:45;;;;;;;2.30;2.10;;;16.60;52.60;;;;;;5064616;28;20186;-52
2021/01/24 03:31:10;;;;;;;2.35;2.15;;;16.50;52.50;;;;;;5083863;28;20213;-49
2021/01/24 03:33:36;;;;;;;2.28;2.08;;;16.50;52.50;;;;;;5084989;28;20181;-51
2021/01/24 03:36:03;;;;;;;2.28;2.08;;;16.50;52.40;;;;;;5067990;28;20245;-53
2021/01/24 03:38:28;;;;;;;2.42;2.22;;;16.50;52.50;;;;;;5085476;28;20178;-55
2021/01/24 03:40:54;;;;;;;2.85;2.13;;;16.50;52.50;;;;;;5085669;28;20650;-56
2021/01/24 03:43:19;;;;;;;2.95;2.60;;;16.50;52.60;;;;;;5085697;28;20170;-57
2021/01/24 03:45:45;;;;;;;2.30;2.10;;;16.50;52.40;;;;;;5086009;28;20223;-58
2021/01/24 03:48:10;;;;;;;2.20;2.00;;;16.50;52.50;;;;;;5085735;28;20173;-56
2021/01/24 03:50:36;;;;;;;2.35;2.25;;;16.50;52.40;;;;;;5085534;28;20178;-52
2021/01/24 03:53:02;;;;;;;2.08;1.88;;;16.50;52.40;;;;;;5085085;28;20201;-56
2021/01/24 03:55:27;;;;;;;2.20;2.00;;;16.40;52.40;;;;;;5085652;28;20631;-56
2021/01/24 03:57:53;;;;;;;2.22;2.00;;;16.50;52.60;;;;;;5085489;28;20180;-52
2021/01/24 04:00:19;;;;;;;2.88;2.30;;;16.50;52.50;;;;;;5085462;28;20227;-53
2021/01/24 04:02:44;;;;;;;2.13;2.00;;;16.50;52.50;;;;;;5085335;28;20631;-53
2021/01/24 04:05:10;;;;;;;2.65;2.42;;;16.40;52.50;;;;;;5085307;28;20185;-56
2021/01/24 04:07:35;;;;;;;2.28;2.08;;;16.40;52.50;;;;;;5085308;28;20170;-58
2021/01/24 04:10:02;;;;;;;2.30;2.10;;;16.40;52.50;;;;;;5085235;28;20174;-57
2021/01/24 04:12:28;;;;;;;1.88;1.77;;;16.40;52.50;;;;;;5085164;28;20213;-56
2021/01/24 04:14:53;;;;;;;2.42;2.22;;;16.40;52.50;;;;;;5085300;28;20182;-58
2021/01/24 04:17:19;;;;;;;2.53;2.33;;;16.40;52.50;;;;;;5084944;28;20181;-55
2021/01/24 04:19:45;;;;;;;2.45;2.25;;;16.40;52.50;;;;;;5084827;28;20247;-57
2021/01/24 04:22:10;;;;;;;2.17;1.90;;;16.40;52.50;;;;;;5084936;28;20740;-58
2021/01/24 04:24:36;;;;;;;2.45;2.25;;;16.30;52.50;;;;;;5084704;28;20180;-55
2021/01/24 04:27:01;;;;;;;2.30;2.10;;;16.30;52.50;;;;;;5084649;28;21090;-51
2021/01/24 04:29:27;;;;;;;2.35;2.15;;;16.30;52.50;;;;;;5084327;28;20436;-55
2021/01/24 04:31:52;;;;;;;2.00;1.90;;;16.30;52.50;;;;;;5084624;28;20206;-54
2021/01/24 04:34:18;;;;;;;2.70;2.50;;;16.30;52.50;;;;;;5084710;28;20264;-54
2021/01/24 04:36:43;;;;;;;2.17;2.08;;;16.30;52.50;;;;;;5084401;28;20170;-52
2021/01/24 04:39:09;;;;;;;2.63;2.30;;;16.30;52.50;;;;;;5084459;28;20178;-52
2021/01/24 04:41:35;;;;;;;2.35;2.15;;;16.20;52.60;;;;;;5084634;28;20267;-54
2021/01/24 04:44:03;;;;;;;1.90;1.80;;;16.30;52.60;;;;;;5084209;28;20170;-58
2021/01/24 04:46:28;;;;;;;2.15;2.05;;;16.30;52.60;;;;;;5084558;28;20670;-55
2021/01/24 04:48:54;;;;;;;2.72;2.17;;;16.30;52.60;;;;;;5066048;28;20192;-55
2021/01/24 04:51:20;;;;;;;2.20;2.05;;;16.30;52.60;;;;;;5083771;28;20729;-50
2021/01/24 04:53:45;;;;;;;2.28;2.08;;;16.30;52.60;;;;;;5084150;28;20174;-57
2021/01/24 04:56:11;;;;;;;2.00;1.90;;;16.20;52.60;;;;;;5049777;28;20177;-55
2021/01/24 04:58:36;;;;;;;2.45;2.25;;;16.20;52.60;;;;;;5049827;28;20193;-50
2021/01/24 05:01:02;;;;;;;2.58;2.38;;;16.20;52.60;;;;;;5084447;28;20299;-54
2021/01/24 05:03:28;;;;;;;2.40;2.20;;;16.30;52.60;;;;;;5066457;28;20184;-57
2021/01/24 05:05:53;;;;;;;2.20;2.00;;;16.20;52.60;;;;;;5049135;28;20193;-55
2021/01/24 05:08:19;;;;;;;2.50;2.30;;;16.20;52.60;;;;;;5084119;28;20623;-55
2021/01/24 05:10:45;;;;;;;2.33;2.17;;;16.20;52.60;;;;;;5049435;28;20552;-50
2021/01/24 05:13:10;;;;;;;2.40;2.20;;;16.20;52.60;;;;;;5084072;28;20169;-58
2021/01/24 05:15:36;;;;;;;2.38;2.17;;;16.20;52.60;;;;;;5084120;28;20184;-57
2021/01/24 05:18:02;;;;;;;2.40;2.20;;;16.20;52.60;;;;;;5084193;28;20170;-58
2021/01/24 05:20:31;;;;;;;2.65;2.45;;;16.20;52.60;;;;;;5083905;28;20178;-58
2021/01/24 05:23:01;;;;;;;2.20;2.10;;;16.10;52.60;;;;;;5084481;28;20264;-58
2021/01/24 05:25:30;;;;;;;2.40;2.20;;;16.10;52.60;;;;;;5066147;28;20557;-59
2021/01/24 05:27:56;;;;;;;1.90;1.80;;;16.10;52.60;;;;;;5084241;28;20174;-58
2021/01/24 05:30:31;;;;;;;2.38;2.20;;;16.10;52.60;;;;;;5066044;28;20276;-58
2021/01/24 05:32:58;;;;;;;1.90;1.80;;;16.10;52.60;;;;;;5084090;28;20233;-57
2021/01/24 05:35:24;;;;;;;2.75;2.55;;;16.10;52.60;;;;;;5084271;28;20166;-55
2021/01/24 05:37:50;;;;;;;2.70;2.50;;;16.10;52.60;;;;;;5083797;28;20271;-55
2021/01/24 05:40:15;;;;;;;2.35;2.15;;;16.10;52.60;;;;;;5083873;28;20245;-56
2021/01/24 05:42:41;;;;;;;2.30;2.10;;;16.00;52.60;;;;;;5083843;28;20174;-56
2021/01/24 05:45:10;;;;;;;1.95;1.85;;;16.10;52.60;;;;;;5083983;28;20282;-57
2021/01/24 05:47:37;;;;;;;2.40;2.20;;;16.10;52.60;;;;;;5083810;28;20170;-56
2021/01/24 05:50:05;;;;;;;2.30;2.10;;;16.10;52.70;;;;;;5065959;28;20174;-56
2021/01/24 05:52:31;;;;;;;2.38;2.17;;;16.00;52.60;;;;;;5065641;28;20308;-58
2021/01/24 05:54:56;;;;;;;2.00;1.88;;;16.00;52.70;;;;;;5049162;28;20272;-58
2021/01/24 05:57:23;;;;;;;2.38;2.17;;;16.00;52.60;;;;;;5087779;28;20235;-58
2021/01/24 05:59:55;;;;;;;2.35;1.88;;;16.00;52.60;;;;;;5087401;28;21189;-57
2021/01/24 06:02:22;;;;;;;2.03;1.92;;;16.00;52.60;;;;;;5087499;28;20177;-56
2021/01/24 06:04:50;;;;;;;2.28;2.13;;;16.10;52.60;;;;;;5087656;28;20643;-58
2021/01/24 06:07:16;;;;;;;1.90;1.80;;;16.10;52.80;;;;;;5087692;28;20260;-57
2021/01/24 06:09:42;;;;;;;1.73;1.63;;;16.20;52.70;;;;;;5087522;28;20699;-57
2021/01/24 06:12:08;;;;;;;1.90;1.70;;;16.40;52.60;;;;;;5087416;28;20941;-58
2021/01/24 06:14:35;;;;;;;1.88;1.70;;;16.60;52.40;;;;;;5087375;28;20217;-55
2021/01/24 06:17:02;;;;;;;1.88;1.77;;;16.90;52.30;;;;;;5087061;28;20268;-56
2021/01/24 06:19:31;;;;;;;1.80;1.70;;;17.10;52.00;;;;;;5069721;28;20166;-57
2021/01/24 06:21:56;;;;;;;1.70;1.60;;;17.40;51.40;;;;;;5069334;28;20170;-59
2021/01/24 06:24:26;;;;;;;1.70;1.60;;;17.70;50.80;;;;;;5052818;28;20667;-58
2021/01/24 06:26:57;;;;;;;1.95;1.85;;;17.90;50.40;;;;;;5069587;28;20636;-56
2021/01/24 06:29:24;;;;;;;1.73;1.63;;;18.00;50.00;;;;;;5068952;28;20208;-55
2021/01/24 06:31:51;;;;;;;1.75;1.63;;;18.20;50.50;;;;;;5068792;28;20205;-55
2021/01/24 06:34:33;;;;;;;1.55;1.45;;;18.30;49.70;;;;;;5052660;28;20174;-54
2021/01/24 06:37:20;;;;;;;1.90;1.70;;;18.30;49.60;;;;;;5070690;28;20180;-57
2021/01/24 06:39:52;;;;;;;1.55;1.45;;;18.40;49.50;;;;;;5086636;28;20176;-58
2021/01/24 06:42:42;;;;;;;1.42;1.33;;;18.40;49.50;;;;;;5086974;28;20178;-59
2021/01/24 06:45:36;;;;;;;1.52;1.42;;;18.40;49.50;;;;;;5086764;28;20268;-58
2021/01/24 06:48:02;;;;;;;1.40;1.30;;;18.40;49.50;;;;;;5084035;28;20190;-59
2021/01/24 06:50:43;;;;;;;1.50;1.45;;;18.40;49.50;;;;;;5086788;28;20170;-57
2021/01/24 06:53:18;;;;;;;1.55;1.45;;;18.50;49.60;;;;;;5086689;28;20237;-58
2021/01/24 06:56:01;;;;;;;1.63;1.52;;;18.50;49.50;;;;;;5086506;28;20589;-55
2021/01/24 06:58:27;;;;;;;1.52;1.42;;;18.40;49.50;;;;;;5086689;28;20264;-56
2021/01/24 07:01:12;;;;;;;1.60;1.50;;;18.40;49.50;;;;;;5086265;28;20173;-55
2021/01/24 07:03:38;;;;;;;1.48;1.38;;;18.40;49.60;;;;;;5086194;28;20897;-56
2021/01/24 07:06:32;;;;;;;1.50;1.40;;;18.40;49.60;;;;;;5086183;28;20186;-58
2021/01/24 07:08:58;;;;;;;1.58;1.48;;;18.40;49.60;;;;;;5085800;28;20205;-56
2021/01/24 07:11:52;;;;;;;1.20;1.20;;;18.30;49.80;;;;;;5086141;28;20295;-57
2021/01/24 07:14:38;;;;;;;1.58;1.48;;;18.20;49.90;;;;;;5086463;28;20231;-58
2021/01/24 07:17:07;;;;;;;1.83;1.35;;;18.10;50.20;;;;;;5068616;28;20190;-57
2021/01/24 07:19:38;;;;;;;1.20;1.15;;;18.00;50.30;;;;;;5085833;28;20204;-56
2021/01/24 07:22:04;;;;;;;2.03;1.30;;;18.00;50.40;;;;;;5086310;28;20261;-58
2021/01/24 07:24:30;;;;;;;1.40;1.30;;;17.90;50.50;;;;;;5086118;28;20253;-56
2021/01/24 07:26:56;;;;;;;1.10;1.10;;;17.90;50.60;;;;;;5068003;28;20197;-57
2021/01/24 07:29:21;;;;;;;1.20;1.10;;;17.90;50.60;;;;;;5085530;28;20197;-57
2021/01/24 07:31:47;;;;;;;1.60;1.50;;;17.80;50.60;;;;;;5085888;28;20644;-57
2021/01/24 07:34:13;;;;;;;1.42;1.33;;;17.80;50.70;;;;;;5067770;28;20677;-55
2021/01/24 07:36:40;;;;;;;1.33;1.23;;;17.70;50.80;;;;;;5085762;28;20181;-55
2021/01/24 07:39:06;;;;;;;1.52;1.42;;;17.70;50.90;;;;;;5085870;28;20784;-57
2021/01/24 07:41:31;;;;;;;1.38;1.27;;;17.70;51.50;;;;;;5085458;28;20185;-59
2021/01/24 07:43:57;;;;;;;1.20;1.10;;;17.70;50.80;;;;;;5085646;28;20534;-57
2021/01/24 07:46:23;;;;;;;1.27;1.17;;;17.70;50.80;;;;;;5085460;28;20213;-57
2021/01/24 07:48:48;;;;;;;1.20;1.10;;;17.70;50.80;;;;;;5085529;28;20178;-58
2021/01/24 07:51:15;;;;;;;1.20;1.20;;;17.80;50.80;;;;;;5085801;28;20197;-57
2021/01/24 07:53:40;;;;;;;1.52;1.42;;;17.80;50.70;;;;;;5085660;28;20709;-58
2021/01/24 07:56:06;;;;;;;1.30;1.20;;;17.80;50.60;;;;;;5067719;28;20166;-57
2021/01/24 07:58:32;;;;;;;1.40;1.30;;;17.90;50.50;;;;;;5067347;28;20268;-54
2021/01/24 08:00:57;;;;;;;1.30;1.20;;;17.90;50.50;;;;;;5085137;28;20178;-57
2021/01/24 08:03:23;;;;;;;1.50;1.40;;;17.90;50.60;;;;;;5085512;28;20181;-62
2021/01/24 08:05:49;;;;;;;1.65;1.40;;;17.80;50.70;;;;;;5085488;28;20653;-61
2021/01/24 08:08:14;;;;;;;2.83;1.73;;;17.80;51.10;;;;;;5085340;28;20748;-61
2021/01/24 08:10:40;;;;;;;1.48;1.30;;;17.70;51.40;;;;;;5085021;28;20185;-61
2021/01/24 08:13:05;;;;;;;1.85;1.42;;;17.50;51.90;;;;;;5084975;28;20197;-62
2021/01/24 08:15:31;;;;;;;3.92;1.58;;;17.50;52.20;;;;;;5085053;28;20182;-59
2021/01/24 08:18:00;;;;;;;3.25;1.60;;;17.50;52.20;;;;;;5066017;28;20234;-60
2021/01/24 08:20:26;;;;;;;2.90;1.48;;;17.60;52.20;;;;;;5066190;28;20177;-61
2021/01/24 08:22:52;;;;;;;2.33;1.50;;;17.60;52.30;;;;;;5063796;28;20636;-63
2021/01/24 08:25:18;;;;;;;1.83;1.42;;;17.60;52.30;;;;;;5065510;28;20193;-61
2021/01/24 08:27:44;;;;;;;2.13;1.70;;;17.60;52.20;;;;;;5084814;28;20603;-64
2021/01/24 08:30:10;;;;;;;3.03;1.30;;;17.70;52.20;;;;;;5085316;28;20327;-63
2021/01/24 08:32:40;;;;;;;1.85;1.20;;;17.70;52.10;;;;;;5066393;28;20233;-62
2021/01/24 08:35:06;;;;;;;2.80;1.75;;;17.70;52.10;;;;;;5084795;28;20646;-62
2021/01/24 08:37:32;;;;;;;1.92;1.35;;;17.60;51.90;;;;;;5084590;28;20265;-61
2021/01/24 08:39:58;;;;;;;1.17;1.13;;;17.60;52.20;;;;;;5084677;28;20603;-61
2021/01/24 08:42:24;;;;;;;1.90;1.50;;;17.60;52.20;;;;;;5084839;28;20623;-61
2021/01/24 08:45:00;;;;;;;2.70;1.35;;;17.50;52.20;;;;;;5065975;28;20261;-62
2021/01/24 08:47:25;;;;;;;1.80;1.50;;;17.40;52.40;;;;;;5081845;28;20630;-62
2021/01/24 08:50:10;;;;;;;1.70;1.30;;;17.40;52.30;;;;;;5083549;28;20170;-59
2021/01/24 08:52:36;;;;;;;2.00;1.48;;;17.50;52.50;;;;;;5084554;28;20197;-63
2021/01/24 08:55:04;;;;;;;1.60;1.50;;;17.50;52.50;;;;;;5084635;28;20228;-63
2021/01/24 08:57:33;;;;;;;2.00;1.70;;;17.60;52.60;;;;;;5084585;28;20247;-61
2021/01/24 09:00:06;;;;;;;2.13;1.20;;;17.60;52.50;;;;;;5084722;28;20177;-59
2021/01/24 09:02:36;;;;;;;4.88;1.48;;;17.70;52.80;;;;;;5049610;28;20230;-59
2021/01/24 09:05:03;;;;;;;3.05;1.50;;;18.00;52.50;;;;;;5083926;28;20549;-57
2021/01/24 09:07:44;;;;;;;2.90;1.50;;;18.20;51.90;;;;;;5066309;28;20195;-59
2021/01/24 09:10:14;;;;;;;3.08;1.25;;;18.60;51.60;;;;;;5084404;28;20178;-60
2021/01/24 09:12:39;;;;;;;1.50;1.40;;;18.90;51.00;;;;;;5084300;28;20229;-62
2021/01/24 09:15:06;;;;;;;3.67;1.30;;;19.20;50.70;;;;;;5083961;28;20214;-64
2021/01/24 09:17:31;;;;;;;1.48;1.20;;;19.40;50.30;;;;;;5083891;28;20170;-62
2021/01/24 09:19:57;;;;;;;1.70;1.30;;;19.60;50.00;;;;;;5065914;28;20173;-60
2021/01/24 09:22:22;;;;;;;1.45;1.20;;;19.70;49.60;;;;;;5084315;28;20240;-63
2021/01/24 09:24:48;;;;;;;2.55;1.13;;;19.80;49.60;;;;;;5084492;28;20333;-60
2021/01/24 09:27:15;;;;;;;3.15;1.52;;;19.80;49.50;;;;;;5084544;28;20293;-59
2021/01/24 09:29:41;;;;;;;1.30;1.20;;;19.80;49.60;;;;;;5083880;28;20308;-59
2021/01/24 09:32:06;;;;;;;1.70;1.30;;;19.70;49.60;;;;;;5087826;28;20212;-59
2021/01/24 09:34:33;;;;;;;2.40;1.08;;;19.70;49.60;;;;;;5087801;28;20185;-60
2021/01/24 09:36:58;;;;;;;1.02;0.90;;;19.70;49.60;;;;;;5069519;28;20170;-60
2021/01/24 09:39:24;;;;;;;3.50;1.45;;;19.70;49.60;;;;;;5088005;28;20176;-59
2021/01/24 09:41:50;;;;;;;1.67;1.15;;;19.70;49.60;;;;;;5088294;28;20698;-63
2021/01/24 09:44:15;;;;;;;1.73;1.10;;;19.70;49.70;;;;;;5087816;28;20181;-61
2021/01/24 09:46:41;;;;;;;2.30;0.98;;;19.60;49.70;;;;;;5087709;28;20192;-61
2021/01/24 09:49:07;;;;;;;1.10;0.80;;;19.70;49.70;;;;;;5087605;28;20945;-60
2021/01/24 09:51:32;;;;;;;2.45;1.10;;;19.60;49.80;;;;;;5087588;28;21007;-59
2021/01/24 09:53:58;;;;;;;1.23;1.10;;;19.60;49.80;;;;;;5087595;28;20186;-60
2021/01/24 09:56:27;;;;;;;1.27;1.00;;;19.60;49.90;;;;;;5087513;28;20174;-58
2021/01/24 09:58:53;;;;;;;1.20;1.10;;;19.60;49.90;;;;;;5086729;28;20667;-60
2021/01/24 10:01:19;;;;;;;1.52;1.02;;;19.50;49.90;;;;;;5097726;28;20189;-60
2021/01/24 10:03:48;;;;;;;1.63;0.90;;;19.50;50.00;;;;;;5094771;28;20176;-61
2021/01/24 10:06:18;;;;;;;1.77;0.93;;;19.40;50.10;;;;;;5107655;28;20169;-61
2021/01/24 10:08:44;;;;;;;1.73;1.30;;;19.30;50.20;;;;;;5076125;28;20177;-61
2021/01/24 10:11:10;;;;;;;1.02;0.93;;;19.20;50.30;;;;;;5087531;28;20693;-59
2021/01/24 10:13:35;;;;;;;1.67;0.98;;;19.20;50.50;;;;;;5052767;28;20220;-60
2021/01/24 10:16:01;;;;;;;1.70;1.00;;;19.10;50.50;;;;;;5072059;28;20169;-60
2021/01/24 10:18:27;;;;;;;1.80;0.80;;;19.10;50.60;;;;;;5107505;28;20173;-59
2021/01/24 10:20:52;;;;;;;0.88;0.88;;;19.00;50.50;;;;;;5107506;28;20212;-60
2021/01/24 10:23:21;;;;;;;0.60;0.60;;;19.00;50.60;;;;;;5107546;28;20529;-60
2021/01/24 10:25:51;;;;;;;1.55;1.25;;;18.90;50.60;;;;;;5107402;28;20169;-61
2021/01/24 10:28:17;;;;;;;1.13;0.77;;;18.90;50.80;;;;;;5107135;28;20195;-61
2021/01/24 10:30:43;;;;;;;1.40;0.90;;;18.90;50.80;;;;;;5107400;28;20200;-59
2021/01/24 10:33:09;;;;;;;1.10;0.82;;;18.80;50.70;;;;;;5103604;28;20205;-64
2021/01/24 10:35:35;;;;;;;1.45;0.93;;;18.70;50.90;;;;;;5086596;28;20876;-62
2021/01/24 10:38:01;;;;;;;1.05;0.75;;;18.70;51.00;;;;;;5069032;28;20189;-62
2021/01/24 10:40:26;;;;;;;0.73;0.73;;;18.70;51.10;;;;;;5086762;28;20181;-63
2021/01/24 10:42:52;;;;;;;0.93;0.80;;;18.70;51.10;;;;;;5086578;28;20256;-65
2021/01/24 10:45:18;;;;;;;0.93;0.90;;;18.60;51.10;;;;;;5086506;28;20550;-64
2021/01/24 10:47:43;;;;;;;1.33;0.98;;;18.60;51.10;;;;;;5086251;28;20166;-63
2021/01/24 10:50:10;;;;;;;1.25;0.90;;;18.70;51.10;;;;;;5086693;28;20186;-61
2021/01/24 10:52:35;;;;;;;1.45;0.95;;;18.70;51.10;;;;;;5086313;28;20205;-61
2021/01/24 10:55:01;;;;;;;1.00;0.90;;;18.70;51.10;;;;;;5068370;28;20197;-62
2021/01/24 10:57:26;;;;;;;0.80;0.80;;;18.70;51.20;;;;;;5086131;28;20181;-63
2021/01/24 10:59:52;;;;;;;1.50;0.80;;;18.60;51.20;;;;;;5085905;28;20327;-61
2021/01/24 11:02:17;;;;;;;1.55;0.88;;;18.60;51.20;;;;;;5086032;28;20220;-62
2021/01/24 11:04:43;;;;;;;2.20;0.85;;;18.60;51.30;;;;;;5086447;28;20280;-59
2021/01/24 11:07:09;;;;;;;1.52;0.88;;;18.50;51.30;;;;;;5088501;28;20182;-62
2021/01/24 11:09:34;;;;;;;1.35;1.00;;;18.50;51.60;;;;;;5088453;28;20968;-61
2021/01/24 11:12:00;;;;;;;0.85;0.85;;;18.50;51.60;;;;;;5106589;28;20208;-60
2021/01/24 11:14:26;;;;;;;3.15;0.85;;;18.50;51.50;;;;;;5106437;28;20214;-59
2021/01/24 11:16:52;;;;;;;2.88;1.00;;;18.60;51.50;;;;;;5106270;28;20169;-61
2021/01/24 11:19:18;;;;;;;1.17;0.90;;;18.60;51.30;;;;;;5106506;28;20249;-61
2021/01/24 11:21:43;;;;;;;1.95;1.10;;;18.60;51.10;;;;;;5106173;28;20623;-61
2021/01/24 11:24:09;;;;;;;1.60;0.90;;;18.70;51.10;;;;;;5106189;28;20624;-61
2021/01/24 11:26:35;;;;;;;1.75;0.90;;;18.80;50.90;;;;;;5106307;28;20169;-63
2021/01/24 11:29:00;;;;;;;1.40;0.77;;;18.80;50.80;;;;;;5106044;28;20650;-61
2021/01/24 11:31:26;;;;;;;1.02;0.80;;;18.90;50.80;;;;;;5087945;28;20213;-62
2021/01/24 11:33:52;;;;;;;1.33;0.70;;;18.90;50.80;;;;;;5106115;28;20248;-61
2021/01/24 11:36:18;;;;;;;0.80;0.80;;;18.90;50.80;;;;;;5106217;28;20268;-62
2021/01/24 11:38:43;;;;;;;1.10;0.95;;;18.80;50.80;;;;;;5105845;28;20634;-60
2021/01/24 11:41:09;;;;;;;0.75;0.75;;;18.80;50.80;;;;;;5105919;28;20181;-60
2021/01/24 11:43:35;;;;;;;1.30;0.60;;;18.80;50.90;;;;;;5105834;28;20165;-63
2021/01/24 11:46:00;;;;;;;1.63;1.02;;;18.80;50.90;;;;;;5087667;28;20230;-62
2021/01/24 11:48:26;;;;;;;1.23;0.60;;;18.80;50.90;;;;;;5105777;28;20173;-61
2021/01/24 11:50:52;;;;;;;2.47;0.85;;;18.80;50.90;;;;;;5105789;28;20169;-61
2021/01/24 11:53:18;;;;;;;0.93;0.93;;;18.90;50.80;;;;;;5105215;28;20335;-62
2021/01/24 11:55:44;;;;;;;0.75;0.70;;;18.90;50.80;;;;;;5105997;28;20282;-62
2021/01/24 11:58:09;;;;;;;2.85;0.80;;;18.90;50.70;;;;;;5105824;28;20185;-63
2021/01/24 12:00:35;;;;;;;0.95;0.70;;;19.00;50.60;;;;;;5105271;28;20180;-60
2021/01/24 12:03:01;;;;;;;1.05;0.80;;;19.00;50.50;;;;;;5105722;28;20173;-61
2021/01/24 12:05:26;;;;;;;0.65;0.60;;;19.00;50.60;;;;;;5105435;28;20177;-61
2021/01/24 12:07:52;;;;;;;1.45;0.80;;;19.00;50.70;;;;;;5096961;28;20177;-64
2021/01/24 12:10:17;;;;;;;0.75;0.68;;;18.90;50.90;;;;;;5084684;28;20646;-63
2021/01/24 12:12:43;;;;;;;0.88;0.70;;;18.90;51.00;;;;;;5084831;28;20205;-62
2021/01/24 12:15:09;;;;;;;1.08;0.55;;;18.80;51.00;;;;;;5085081;28;20242;-62
2021/01/24 12:17:35;;;;;;;1.00;0.70;;;18.70;51.10;;;;;;5085032;28;20178;-61
2021/01/24 12:20:00;;;;;;;0.82;0.80;;;18.80;51.10;;;;;;5085175;28;20189;-62
2021/01/24 12:22:26;;;;;;;1.63;0.80;;;18.80;51.20;;;;;;5084687;28;20174;-62
2021/01/24 12:24:51;;;;;;;1.02;0.70;;;18.70;51.10;;;;;;5084885;28;20178;-63
2021/01/24 12:27:17;;;;;;;0.93;0.60;;;18.70;51.20;;;;;;5084925;28;20926;-63
2021/01/24 12:29:43;;;;;;;0.85;0.70;;;18.60;51.80;;;;;;5084318;28;20197;-61
2021/01/24 12:32:08;;;;;;;0.60;0.60;;;18.60;51.40;;;;;;5084615;28;20246;-61
2021/01/24 12:34:34;;;;;;;0.95;0.68;;;18.50;51.40;;;;;;5066596;28;20202;-60
2021/01/24 12:36:59;;;;;;;0.75;0.60;;;18.40;51.50;;;;;;5084680;28;21015;-61
2021/01/24 12:39:25;;;;;;;0.65;0.55;;;18.40;51.50;;;;;;5084333;28;20181;-61
2021/01/24 12:41:50;;;;;;;1.00;0.90;;;18.40;51.50;;;;;;5084378;28;20190;-61
2021/01/24 12:44:16;;;;;;;1.30;0.80;;;18.40;51.40;;;;;;5084342;28;20634;-61
2021/01/24 12:46:41;;;;;;;1.42;0.98;;;18.30;51.40;;;;;;5066531;28;20230;-64
2021/01/24 12:49:08;;;;;;;0.93;0.70;;;18.40;51.50;;;;;;5084281;28;20252;-62